Wivenhoe, United Kingdom
Current Conditions -  °F | °C
As of 4:50 AM on Saturday 22 Nov 2014 (Local Time) from EGUW Reporting Station
Haze Haze  
Wind Chill: 50°   Ceiling: 1000
Heat Index: 50°   Visibility: 4mi
Dew Point: 50°   Wind: 9mph
Humidity: 100%   Direction: 150°SSE
Pressure: 29.88"   Gusts: NA
Location:  51.86°N, 0.96°E
Report Text: EGUW 220450Z AUTO 15008KT 7000 BR BKN010/// BKN017/// 10/10 Q1012
Loading
Personal Weather Stations






























Interactive Weather Map New forecast layout! Learn more

10-Day Weather Forecast

Advertisements
Track Severe Weather on mobile